Time;durP1;ratioP1;P1;durP2;ratioP2;P2;SDS_P1;SDS_P2;PMS_P1;PMS_P2;Temp;Humidity;BMP_temperature;BMP_pressure;BME280_temperature;BME280_humidity;BME280_pressure;Samples;Min_cycle;Max_cycle;Signal;HPM_P1;HPM_P2
2022/07/30 00:00:28;;;;;;;1.58;0.80;;;;;;;;;;5023775;28;20454;-80
2022/07/30 00:03:14;;;;;;;2.03;1.27;;;;;;;;;;5038715;28;20036;-80
2022/07/30 00:05:59;;;;;;;1.77;0.95;;;;;;;;;;5037778;28;20099;-81
2022/07/30 00:08:45;;;;;;;1.42;0.73;;;;;;;;;;5038650;28;20063;-81
2022/07/30 00:11:31;;;;;;;2.15;1.10;;;;;;;;;;5038191;28;20041;-80
2022/07/30 00:14:16;;;;;;;2.95;1.00;;;;;;;;;;5052948;28;20047;-81
2022/07/30 00:17:02;;;;;;;2.25;1.10;;;;;;;;;;5023160;28;20061;-81
2022/07/30 00:19:48;;;;;;;2.97;1.10;;;;;;;;;;5025587;28;20045;-81
2022/07/30 00:22:34;;;;;;;1.70;0.80;;;;;;;;;;5050383;28;20033;-81
2022/07/30 00:25:20;;;;;;;2.08;1.15;;;;;;;;;;5022960;28;20032;-81
2022/07/30 00:28:05;;;;;;;2.00;1.30;;;;;;;;;;5036345;28;20064;-81
2022/07/30 00:30:51;;;;;;;2.38;1.27;;;;;;;;;;5037321;28;20047;-81
2022/07/30 00:33:37;;;;;;;2.13;1.40;;;;;;;;;;5024387;28;20126;-81
2022/07/30 00:36:22;;;;;;;2.28;1.00;;;;;;;;;;5024323;28;20499;-81
2022/07/30 00:39:08;;;;;;;2.17;0.70;;;;;;;;;;5023384;28;20077;-81
2022/07/30 00:41:58;;;;;;;3.33;1.30;;;;;;;;;;5024109;28;20037;-81
2022/07/30 00:44:44;;;;;;;2.25;1.20;;;;;;;;;;5023557;28;20037;-81
2022/07/30 00:47:29;;;;;;;2.47;0.98;;;;;;;;;;5025226;28;20099;-81
2022/07/30 00:50:15;;;;;;;3.33;1.10;;;;;;;;;;5037043;28;20099;-81
2022/07/30 00:53:01;;;;;;;1.88;1.40;;;;;;;;;;5037624;28;20411;-80
2022/07/30 00:55:47;;;;;;;1.88;0.80;;;;;;;;;;5022605;28;20033;-80
2022/07/30 00:58:32;;;;;;;1.13;0.70;;;;;;;;;;5022684;28;20044;-80
2022/07/30 01:01:19;;;;;;;1.65;0.88;;;;;;;;;;5023724;28;20059;-80
2022/07/30 01:04:10;;;;;;;1.80;0.95;;;;;;;;;;5036968;28;20041;-80
2022/07/30 01:06:56;;;;;;;1.95;1.17;;;;;;;;;;5023904;28;20580;-80
2022/07/30 01:09:41;;;;;;;3.17;0.68;;;;;;;;;;5022453;28;20430;-82
2022/07/30 01:12:27;;;;;;;3.20;1.38;;;;;;;;;;5022545;28;20509;-80
2022/07/30 01:15:13;;;;;;;1.83;0.95;;;;;;;;;;5022324;28;20040;-80
2022/07/30 01:18:01;;;;;;;3.55;1.05;;;;;;;;;;5023323;28;20083;-80
2022/07/30 01:21:04;;;;;;;2.58;0.88;;;;;;;;;;5035744;28;20464;-80
2022/07/30 01:23:50;;;;;;;4.13;1.20;;;;;;;;;;5036716;28;20041;-80
2022/07/30 01:26:35;;;;;;;2.15;0.93;;;;;;;;;;5037064;28;20419;-80
2022/07/30 01:29:21;;;;;;;1.48;0.70;;;;;;;;;;5022188;28;20041;-80
2022/07/30 01:32:08;;;;;;;1.92;0.90;;;;;;;;;;5023478;28;20041;-80
2022/07/30 01:34:55;;;;;;;2.63;1.05;;;;;;;;;;5024335;28;20045;-80
2022/07/30 01:37:41;;;;;;;1.80;1.00;;;;;;;;;;5036767;28;20037;-80
2022/07/30 01:40:27;;;;;;;2.83;0.93;;;;;;;;;;5036381;28;20049;-80
2022/07/30 01:43:13;;;;;;;3.60;1.17;;;;;;;;;;5023252;28;20403;-80
2022/07/30 01:45:59;;;;;;;1.40;0.70;;;;;;;;;;5021902;28;20458;-80
2022/07/30 01:48:45;;;;;;;2.63;1.10;;;;;;;;;;5022602;28;20087;-80
2022/07/30 01:51:30;;;;;;;2.25;1.30;;;;;;;;;;5021159;28;20037;-80
2022/07/30 01:54:16;;;;;;;2.72;1.27;;;;;;;;;;5023028;28;20047;-80
2022/07/30 01:57:02;;;;;;;2.42;0.95;;;;;;;;;;5023155;28;20045;-80
2022/07/30 01:59:50;;;;;;;2.45;0.95;;;;;;;;;;5022786;28;20523;-80
2022/07/30 02:02:37;;;;;;;2.30;0.70;;;;;;;;;;5022003;28;20084;-80
2022/07/30 02:05:23;;;;;;;1.88;1.13;;;;;;;;;;5034962;28;20058;-80
2022/07/30 02:08:16;;;;;;;2.20;0.90;;;;;;;;;;5022657;28;20037;-80
2022/07/30 02:11:12;;;;;;;2.75;0.90;;;;;;;;;;5037352;28;20116;-80
2022/07/30 02:13:58;;;;;;;1.65;0.95;;;;;;;;;;5035989;28;20064;-80
2022/07/30 02:16:43;;;;;;;3.15;0.80;;;;;;;;;;5036320;28;20037;-79
2022/07/30 02:19:32;;;;;;;2.53;1.20;;;;;;;;;;5036257;28;20052;-80
2022/07/30 02:22:18;;;;;;;2.97;0.95;;;;;;;;;;5022142;28;20070;-80
2022/07/30 02:25:04;;;;;;;1.80;0.98;;;;;;;;;;5021512;28;20033;-80
2022/07/30 02:27:53;;;;;;;4.30;0.85;;;;;;;;;;5021532;28;20033;-80
2022/07/30 02:30:43;;;;;;;2.05;1.00;;;;;;;;;;5038350;28;20037;-80
2022/07/30 02:33:32;;;;;;;1.85;1.05;;;;;;;;;;5021897;28;20044;-80
2022/07/30 02:36:17;;;;;;;1.15;0.70;;;;;;;;;;5036561;28;20132;-80
2022/07/30 02:39:03;;;;;;;1.45;0.65;;;;;;;;;;5021663;28;20418;-80
2022/07/30 02:41:49;;;;;;;2.75;0.95;;;;;;;;;;5021518;28;20036;-80
2022/07/30 02:44:35;;;;;;;2.08;0.93;;;;;;;;;;5021514;28;20037;-80
2022/07/30 02:47:21;;;;;;;1.40;0.77;;;;;;;;;;5022945;28;20037;-80
2022/07/30 02:50:07;;;;;;;3.03;0.80;;;;;;;;;;5035731;28;20052;-80
2022/07/30 02:52:53;;;;;;;2.33;0.93;;;;;;;;;;5020844;28;20495;-80
2022/07/30 02:55:39;;;;;;;3.05;1.20;;;;;;;;;;5036401;28;20041;-80
2022/07/30 02:58:24;;;;;;;2.42;0.73;;;;;;;;;;5021498;28;20041;-80
2022/07/30 03:01:10;;;;;;;1.45;0.77;;;;;;;;;;5021736;28;20037;-80
2022/07/30 03:03:56;;;;;;;2.63;0.75;;;;;;;;;;5027099;28;20048;-80
2022/07/30 03:06:42;;;;;;;2.80;1.45;;;;;;;;;;5037951;28;20107;-79
2022/07/30 03:09:27;;;;;;;1.60;0.82;;;;;;;;;;5039508;28;20115;-80
2022/07/30 03:12:13;;;;;;;1.63;0.70;;;;;;;;;;5024963;28;20052;-80
2022/07/30 03:14:59;;;;;;;1.48;0.70;;;;;;;;;;5039864;28;20043;-80
2022/07/30 03:17:48;;;;;;;1.30;0.60;;;;;;;;;;5024323;28;20499;-80
2022/07/30 03:20:33;;;;;;;4.82;1.23;;;;;;;;;;5024083;28;20099;-80
2022/07/30 03:23:19;;;;;;;1.55;0.73;;;;;;;;;;5039506;28;20474;-80
2022/07/30 03:26:05;;;;;;;2.72;1.13;;;;;;;;;;5037719;28;20067;-80
2022/07/30 03:28:51;;;;;;;3.28;1.13;;;;;;;;;;5039366;28;20056;-80
2022/07/30 03:31:38;;;;;;;1.50;0.80;;;;;;;;;;5038745;28;20037;-80
2022/07/30 03:34:24;;;;;;;2.42;1.15;;;;;;;;;;5023890;28;20044;-80
2022/07/30 03:37:09;;;;;;;1.50;1.00;;;;;;;;;;5038646;28;20037;-80
2022/07/30 03:39:56;;;;;;;2.45;0.90;;;;;;;;;;5024162;28;20045;-80
2022/07/30 03:42:44;;;;;;;2.78;0.85;;;;;;;;;;5039063;28;20044;-80
2022/07/30 03:45:29;;;;;;;1.85;1.00;;;;;;;;;;5025840;28;20041;-80
2022/07/30 03:48:15;;;;;;;1.95;0.90;;;;;;;;;;5038567;28;20041;-80
2022/07/30 03:51:05;;;;;;;3.63;0.90;;;;;;;;;;5023653;28;20048;-80
2022/07/30 03:53:51;;;;;;;1.40;0.90;;;;;;;;;;5024107;28;20048;-80
2022/07/30 03:56:37;;;;;;;2.13;1.10;;;;;;;;;;5025067;28;20091;-80
2022/07/30 03:59:23;;;;;;;1.52;0.93;;;;;;;;;;5023742;28;20037;-79
2022/07/30 04:02:08;;;;;;;3.20;1.00;;;;;;;;;;5024362;28;20495;-80
2022/07/30 04:04:54;;;;;;;3.60;1.20;;;;;;;;;;5023510;28;20044;-80
2022/07/30 04:07:40;;;;;;;2.45;0.77;;;;;;;;;;5038399;28;20427;-80
2022/07/30 04:10:26;;;;;;;2.13;0.80;;;;;;;;;;5038447;28;20077;-80
2022/07/30 04:13:11;;;;;;;3.95;1.48;;;;;;;;;;5024442;28;20133;-80
2022/07/30 04:16:01;;;;;;;2.70;1.10;;;;;;;;;;5038450;28;20044;-80
2022/07/30 04:18:49;;;;;;;1.77;1.00;;;;;;;;;;5037931;28;20041;-80
2022/07/30 04:21:35;;;;;;;2.45;0.93;;;;;;;;;;5023756;28;20564;-79
2022/07/30 04:24:20;;;;;;;4.95;0.90;;;;;;;;;;5038159;28;20418;-80
2022/07/30 04:27:06;;;;;;;2.00;0.82;;;;;;;;;;5039082;28;20431;-80
2022/07/30 04:29:52;;;;;;;2.42;0.95;;;;;;;;;;5038181;28;20127;-80
2022/07/30 04:32:38;;;;;;;1.60;0.68;;;;;;;;;;5037862;28;20127;-80
2022/07/30 04:35:28;;;;;;;3.30;0.80;;;;;;;;;;5037405;28;20045;-80
2022/07/30 04:38:14;;;;;;;2.88;1.08;;;;;;;;;;5038173;28;20041;-80
2022/07/30 04:40:59;;;;;;;4.88;1.00;;;;;;;;;;5023105;28;20037;-79
2022/07/30 04:43:45;;;;;;;2.08;0.82;;;;;;;;;;5037374;28;20048;-80
2022/07/30 04:46:31;;;;;;;1.75;0.98;;;;;;;;;;5036512;28;20067;-80
2022/07/30 04:49:17;;;;;;;2.80;1.08;;;;;;;;;;5037864;28;20045;-80
2022/07/30 04:52:03;;;;;;;2.42;1.05;;;;;;;;;;5037865;28;20116;-80
2022/07/30 04:54:57;;;;;;;4.63;1.70;;;;;;;;;;5037915;28;20052;-80
2022/07/30 04:57:43;;;;;;;4.47;2.08;;;;;;;;;;5036215;28;20120;-80
2022/07/30 05:00:28;;;;;;;2.78;1.48;;;;;;;;;;5024711;28;20055;-80
2022/07/30 05:03:14;;;;;;;5.60;1.38;;;;;;;;;;5024804;28;20079;-80
2022/07/30 05:06:00;;;;;;;3.72;1.60;;;;;;;;;;5022474;28;20571;-80
2022/07/30 05:08:45;;;;;;;3.22;1.60;;;;;;;;;;5022503;28;20422;-80
2022/07/30 05:11:31;;;;;;;4.28;1.85;;;;;;;;;;5023692;28;20048;-80
2022/07/30 05:14:17;;;;;;;5.38;2.25;;;;;;;;;;5022553;28;20044;-80
2022/07/30 05:17:03;;;;;;;5.35;2.00;;;;;;;;;;5036317;28;20048;-80
2022/07/30 05:19:48;;;;;;;4.57;1.92;;;;;;;;;;5022313;28;20048;-80
2022/07/30 05:22:34;;;;;;;6.80;2.55;;;;;;;;;;5022856;28;20033;-80
2022/07/30 05:25:20;;;;;;;4.25;1.88;;;;;;;;;;5023285;28;20037;-80
2022/07/30 05:28:05;;;;;;;5.13;2.08;;;;;;;;;;5023446;28;20499;-80
2022/07/30 05:30:54;;;;;;;5.15;2.63;;;;;;;;;;5023996;28;20511;-80
2022/07/30 05:33:40;;;;;;;5.30;2.25;;;;;;;;;;5024510;28;20037;-80
2022/07/30 05:36:26;;;;;;;3.15;1.80;;;;;;;;;;5036987;28;20052;-80
2022/07/30 05:39:12;;;;;;;4.43;2.13;;;;;;;;;;5036852;28;20045;-80
2022/07/30 05:41:57;;;;;;;4.80;2.05;;;;;;;;;;5022263;28;20044;-80
2022/07/30 05:44:43;;;;;;;4.28;2.25;;;;;;;;;;5021824;28;20511;-80
2022/07/30 05:47:29;;;;;;;4.10;2.78;;;;;;;;;;5022756;28;20400;-80
2022/07/30 05:50:14;;;;;;;4.20;2.10;;;;;;;;;;5021666;28;20526;-80
2022/07/30 05:53:00;;;;;;;3.83;2.15;;;;;;;;;;5022068;28;20087;-80
2022/07/30 05:55:46;;;;;;;3.38;2.25;;;;;;;;;;5037336;28;20557;-80
2022/07/30 05:58:34;;;;;;;4.00;2.25;;;;;;;;;;5036357;28;20431;-80
2022/07/30 06:01:20;;;;;;;4.50;2.05;;;;;;;;;;5036617;28;20033;-80
2022/07/30 06:04:06;;;;;;;5.88;2.50;;;;;;;;;;5021611;28;20037;-80
2022/07/30 06:06:51;;;;;;;6.35;2.60;;;;;;;;;;5036578;28;20507;-80
2022/07/30 06:09:37;;;;;;;4.88;2.38;;;;;;;;;;5034963;28;20047;-80
2022/07/30 06:12:23;;;;;;;6.93;3.08;;;;;;;;;;5021712;28;20091;-80
2022/07/30 06:15:09;;;;;;;3.95;2.60;;;;;;;;;;5023496;28;20091;-80
2022/07/30 06:17:55;;;;;;;4.57;2.47;;;;;;;;;;5036726;28;20049;-80
2022/07/30 06:20:41;;;;;;;3.90;2.22;;;;;;;;;;5036195;28;20044;-80
2022/07/30 06:23:27;;;;;;;3.92;2.03;;;;;;;;;;5036504;28;20040;-80
2022/07/30 06:26:13;;;;;;;4.15;2.70;;;;;;;;;;5036448;28;20127;-80
2022/07/30 06:28:58;;;;;;;3.72;2.50;;;;;;;;;;5021367;28;20084;-80
2022/07/30 06:31:44;;;;;;;3.70;2.33;;;;;;;;;;5036348;28;20044;-80
2022/07/30 06:34:30;;;;;;;4.72;3.05;;;;;;;;;;5036341;28;20068;-80
2022/07/30 06:37:16;;;;;;;4.00;3.05;;;;;;;;;;5037676;28;20041;-80
2022/07/30 06:40:02;;;;;;;4.75;2.33;;;;;;;;;;5025474;28;20534;-80
2022/07/30 06:42:48;;;;;;;4.22;2.55;;;;;;;;;;5039831;28;20209;-80
2022/07/30 06:45:33;;;;;;;4.20;2.40;;;;;;;;;;5040195;28;20041;-80
2022/07/30 06:48:19;;;;;;;5.15;2.78;;;;;;;;;;5025459;28;20053;-80
2022/07/30 06:51:05;;;;;;;4.20;2.55;;;;;;;;;;5040574;28;20041;-80
2022/07/30 06:53:50;;;;;;;4.65;2.15;;;;;;;;;;5025293;28;20037;-80
2022/07/30 06:56:36;;;;;;;5.03;2.53;;;;;;;;;;5024764;28;20534;-80
2022/07/30 06:59:22;;;;;;;4.72;2.40;;;;;;;;;;5024973;28;20503;-80
2022/07/30 07:02:07;;;;;;;3.05;2.13;;;;;;;;;;5025723;28;20033;-80
2022/07/30 07:04:53;;;;;;;5.38;2.70;;;;;;;;;;5039724;28;20041;-80
2022/07/30 07:07:39;;;;;;;3.05;2.22;;;;;;;;;;5051952;28;20041;-80
2022/07/30 07:10:25;;;;;;;2.85;1.75;;;;;;;;;;5024684;28;20186;-80
2022/07/30 07:13:11;;;;;;;4.20;2.40;;;;;;;;;;5039703;28;20502;-80
2022/07/30 07:15:57;;;;;;;3.25;2.05;;;;;;;;;;5024805;28;20055;-80
2022/07/30 07:18:42;;;;;;;4.65;2.28;;;;;;;;;;5037967;28;20052;-80
2022/07/30 07:21:28;;;;;;;4.68;2.00;;;;;;;;;;5039386;28;20041;-80
2022/07/30 07:24:14;;;;;;;3.08;1.90;;;;;;;;;;5024386;28;20037;-80
2022/07/30 07:27:00;;;;;;;4.25;1.90;;;;;;;;;;5038720;28;20041;-80
2022/07/30 07:29:45;;;;;;;4.15;2.53;;;;;;;;;;5051595;28;20080;-80
2022/07/30 07:32:32;;;;;;;4.07;2.15;;;;;;;;;;5025628;28;20515;-80
2022/07/30 07:35:18;;;;;;;4.25;2.47;;;;;;;;;;5024299;28;20049;-80
2022/07/30 07:38:04;;;;;;;4.30;1.95;;;;;;;;;;5039242;28;20130;-80
2022/07/30 07:40:50;;;;;;;3.83;2.58;;;;;;;;;;5023755;28;20041;-80
2022/07/30 07:43:35;;;;;;;4.38;2.20;;;;;;;;;;5024300;28;20041;-80
2022/07/30 07:46:21;;;;;;;2.80;1.73;;;;;;;;;;5038784;28;20056;-80
2022/07/30 07:49:07;;;;;;;5.03;2.47;;;;;;;;;;5038778;28;20045;-80
2022/07/30 07:51:52;;;;;;;3.53;2.05;;;;;;;;;;5051233;28;20044;-80
2022/07/30 07:54:38;;;;;;;3.88;2.35;;;;;;;;;;5037978;28;20048;-81
2022/07/30 07:57:24;;;;;;;4.18;2.00;;;;;;;;;;5025000;28;20037;-80
2022/07/30 08:00:11;;;;;;;3.45;2.15;;;;;;;;;;5038078;28;20029;-80
2022/07/30 08:02:57;;;;;;;3.63;1.90;;;;;;;;;;5024000;28;20190;-80
2022/07/30 08:05:43;;;;;;;4.82;2.42;;;;;;;;;;5023575;28;20064;-80
2022/07/30 08:08:28;;;;;;;2.75;1.85;;;;;;;;;;5051990;28;20052;-80
2022/07/30 08:11:14;;;;;;;2.90;1.95;;;;;;;;;;5038893;28;20029;-80
2022/07/30 08:14:00;;;;;;;4.40;2.03;;;;;;;;;;5025310;28;20037;-80
2022/07/30 08:16:46;;;;;;;2.88;1.70;;;;;;;;;;5038210;28;20048;-80
2022/07/30 08:19:31;;;;;;;2.90;1.60;;;;;;;;;;5023080;28;20102;-80
2022/07/30 08:22:17;;;;;;;2.88;2.08;;;;;;;;;;5038382;28;20064;-80
2022/07/30 08:25:03;;;;;;;4.00;1.92;;;;;;;;;;5038089;28;20119;-80
2022/07/30 08:27:49;;;;;;;3.00;1.92;;;;;;;;;;5037618;28;20033;-80
2022/07/30 08:30:35;;;;;;;2.70;2.00;;;;;;;;;;5036452;28;20095;-80
2022/07/30 08:33:21;;;;;;;2.90;1.83;;;;;;;;;;5025364;28;20430;-80
2022/07/30 08:36:07;;;;;;;4.28;1.75;;;;;;;;;;5038195;28;20407;-80
2022/07/30 08:38:53;;;;;;;2.50;1.30;;;;;;;;;;5038625;28;20029;-80
2022/07/30 08:41:40;;;;;;;2.53;1.48;;;;;;;;;;5037751;28;20063;-80
2022/07/30 08:44:25;;;;;;;4.00;1.55;;;;;;;;;;5023207;28;20044;-80
2022/07/30 08:47:15;;;;;;;3.95;1.92;;;;;;;;;;5023650;28;20056;-80
2022/07/30 08:50:03;;;;;;;2.90;1.92;;;;;;;;;;5037883;28;20045;-80
2022/07/30 08:52:49;;;;;;;3.35;1.85;;;;;;;;;;5049628;28;20077;-80
2022/07/30 08:55:34;;;;;;;2.78;1.50;;;;;;;;;;5025144;28;20033;-80
2022/07/30 08:58:29;;;;;;;2.78;1.60;;;;;;;;;;5022879;28;20037;-80
2022/07/30 09:01:14;;;;;;;3.63;1.35;;;;;;;;;;5051476;28;20044;-80
2022/07/30 09:04:00;;;;;;;3.67;1.80;;;;;;;;;;5037963;28;20044;-80
2022/07/30 09:06:46;;;;;;;2.15;1.40;;;;;;;;;;5022195;28;20029;-80
2022/07/30 09:09:32;;;;;;;2.60;1.42;;;;;;;;;;5023744;28;20120;-79
2022/07/30 09:12:42;;;;;;;4.35;1.42;;;;;;;;;;5022627;28;20048;-80
2022/07/30 09:15:28;;;;;;;4.45;1.65;;;;;;;;;;5051148;28;20037;-80
2022/07/30 09:18:14;;;;;;;4.43;1.40;;;;;;;;;;5022099;28;20419;-80
2022/07/30 09:21:00;;;;;;;4.35;1.63;;;;;;;;;;5022236;28;20045;-80
2022/07/30 09:24:09;;;;;;;3.55;1.00;;;;;;;;;;5022922;28;20435;-80
2022/07/30 09:26:59;;;;;;;3.50;1.48;;;;;;;;;;5023662;28;20546;-80
2022/07/30 09:29:45;;;;;;;2.70;1.50;;;;;;;;;;5022353;28;20044;-80
2022/07/30 09:32:47;;;;;;;3.03;1.50;;;;;;;;;;5035841;28;20041;-80
2022/07/30 09:35:32;;;;;;;3.08;1.20;;;;;;;;;;5037293;28;20048;-80
2022/07/30 09:38:18;;;;;;;2.95;1.27;;;;;;;;;;5022276;28;20079;-80
2022/07/30 09:41:04;;;;;;;2.30;1.27;;;;;;;;;;5036572;28;20048;-80
2022/07/30 09:43:50;;;;;;;3.08;1.40;;;;;;;;;;5036942;28;20094;-80
2022/07/30 09:46:50;;;;;;;4.38;1.65;;;;;;;;;;5022248;28;20041;-80
2022/07/30 09:49:36;;;;;;;4.75;1.48;;;;;;;;;;5023735;28;20131;-80
2022/07/30 09:52:28;;;;;;;1.60;1.02;;;;;;;;;;5037808;28;20601;-80
2022/07/30 09:55:14;;;;;;;3.13;1.10;;;;;;;;;;5037413;28;20037;-80
2022/07/30 09:58:02;;;;;;;2.53;1.23;;;;;;;;;;5024433;28;20043;-80
2022/07/30 10:00:47;;;;;;;2.00;0.95;;;;;;;;;;5022257;28;20095;-80
2022/07/30 10:03:33;;;;;;;1.98;1.15;;;;;;;;;;5037279;28;20087;-80
2022/07/30 10:06:31;;;;;;;2.83;1.45;;;;;;;;;;5022878;28;20036;-80
2022/07/30 10:09:44;;;;;;;3.45;1.20;;;;;;;;;;5023028;28;20037;-80
2022/07/30 10:12:31;;;;;;;1.70;1.40;;;;;;;;;;5040178;28;20906;-80
2022/07/30 10:15:18;;;;;;;2.05;0.90;;;;;;;;;;5040641;28;20040;-80
2022/07/30 10:18:04;;;;;;;2.40;1.30;;;;;;;;;;5025868;28;20033;-80
2022/07/30 10:20:50;;;;;;;4.18;1.17;;;;;;;;;;5054621;28;20041;-80
2022/07/30 10:23:36;;;;;;;6.13;1.40;;;;;;;;;;5025694;28;20160;-80
2022/07/30 10:26:22;;;;;;;3.13;1.25;;;;;;;;;;5026912;28;20041;-80
2022/07/30 10:29:07;;;;;;;2.50;1.17;;;;;;;;;;5040454;28;20045;-80
2022/07/30 10:31:53;;;;;;;2.50;1.17;;;;;;;;;;5039996;28;20037;-80
2022/07/30 10:34:39;;;;;;;3.08;1.20;;;;;;;;;;5025051;28;20124;-80
2022/07/30 10:37:25;;;;;;;2.67;1.10;;;;;;;;;;5025269;28;20068;-81
2022/07/30 10:40:17;;;;;;;1.73;0.90;;;;;;;;;;5040241;28;20422;-80
2022/07/30 10:43:22;;;;;;;2.10;1.00;;;;;;;;;;5054049;28;20045;-80
2022/07/30 10:46:33;;;;;;;1.95;1.05;;;;;;;;;;5041552;28;20079;-80
2022/07/30 10:49:19;;;;;;;2.55;1.30;;;;;;;;;;5042575;28;20049;-81
2022/07/30 10:52:05;;;;;;;1.80;0.90;;;;;;;;;;5025097;28;20041;-80
2022/07/30 10:54:52;;;;;;;2.40;0.90;;;;;;;;;;5053774;28;20098;-80
2022/07/30 10:58:01;;;;;;;2.92;0.90;;;;;;;;;;5026206;28;20033;-80
2022/07/30 11:00:50;;;;;;;1.85;1.13;;;;;;;;;;5041082;28;20561;-80
2022/07/30 11:03:36;;;;;;;3.00;1.00;;;;;;;;;;5052922;28;20041;-80
2022/07/30 11:06:23;;;;;;;1.80;0.88;;;;;;;;;;5039817;28;20124;-80
2022/07/30 11:09:36;;;;;;;1.52;0.70;;;;;;;;;;5039147;28;20033;-81
2022/07/30 11:12:40;;;;;;;;;;;;;;;;;;5041193;28;20408;-81
2022/07/30 11:15:55;;;;;;;2.90;0.73;;;;;;;;;;5054438;28;19909;-80
2022/07/30 11:19:16;;;;;;;1.80;0.80;;;;;;;;;;5051029;28;20045;-81
2022/07/30 11:22:39;;;;;;;1.85;0.77;;;;;;;;;;5038207;28;20048;-81
2022/07/30 11:25:27;;;;;;;2.78;1.15;;;;;;;;;;5025214;28;20124;-81
2022/07/30 11:28:36;;;;;;;2.10;0.93;;;;;;;;;;5053235;28;20033;-80
2022/07/30 11:31:35;;;;;;;2.05;0.70;;;;;;;;;;5037628;28;20041;-80
2022/07/30 11:34:20;;;;;;;1.77;0.70;;;;;;;;;;5024494;28;20063;-80
2022/07/30 11:37:13;;;;;;;2.60;1.05;;;;;;;;;;5053120;28;20882;-80
2022/07/30 11:39:58;;;;;;;1.08;0.70;;;;;;;;;;5039503;28;20484;-81
2022/07/30 11:42:44;;;;;;;2.25;0.90;;;;;;;;;;5052218;28;20037;-81
2022/07/30 11:45:30;;;;;;;1.30;0.80;;;;;;;;;;5024360;28;20108;-81
2022/07/30 11:48:17;;;;;;;2.40;1.10;;;;;;;;;;5038483;28;20057;-81
2022/07/30 11:51:03;;;;;;;1.67;0.95;;;;;;;;;;5038980;28;20110;-81
2022/07/30 11:54:06;;;;;;;1.55;0.88;;;;;;;;;;5039238;28;20037;-81
2022/07/30 11:56:54;;;;;;;2.13;0.77;;;;;;;;;;5038510;28;20516;-81
2022/07/30 11:59:55;;;;;;;1.60;0.80;;;;;;;;;;5025799;28;20064;-81
2022/07/30 12:02:41;;;;;;;2.00;1.00;;;;;;;;;;5025105;28;20526;-82
2022/07/30 12:05:27;;;;;;;2.08;0.68;;;;;;;;;;5038868;28;20515;-81
2022/07/30 12:08:13;;;;;;;2.10;0.70;;;;;;;;;;5038738;28;20041;-81
2022/07/30 12:10:59;;;;;;;1.13;0.50;;;;;;;;;;5023723;28;20052;-81
2022/07/30 12:13:54;;;;;;;1.15;0.60;;;;;;;;;;5038696;28;20033;-81
2022/07/30 12:16:47;;;;;;;1.83;0.93;;;;;;;;;;5023537;28;20052;-81
2022/07/30 12:19:44;;;;;;;1.85;0.70;;;;;;;;;;5025245;28;20052;-81
2022/07/30 12:22:31;;;;;;;1.40;0.68;;;;;;;;;;5038261;28;20077;-81
2022/07/30 12:25:17;;;;;;;1.55;0.50;;;;;;;;;;5024679;28;20041;-81
2022/07/30 12:28:03;;;;;;;2.20;0.73;;;;;;;;;;5025201;28;20037;-81
2022/07/30 12:30:50;;;;;;;0.70;0.50;;;;;;;;;;5024774;28;20048;-81
2022/07/30 12:33:35;;;;;;;1.75;0.90;;;;;;;;;;5038007;28;20045;-81
2022/07/30 12:36:24;;;;;;;0.77;0.57;;;;;;;;;;5038037;28;20068;-81
2022/07/30 12:39:17;;;;;;;1.08;0.60;;;;;;;;;;5052078;28;20071;-81
2022/07/30 12:42:03;;;;;;;1.83;1.02;;;;;;;;;;5025385;28;20029;-81
2022/07/30 12:44:49;;;;;;;1.48;0.68;;;;;;;;;;5024534;28;20103;-81
2022/07/30 12:47:34;;;;;;;0.93;0.40;;;;;;;;;;5023022;28;20041;-81
2022/07/30 12:50:20;;;;;;;1.20;0.70;;;;;;;;;;5037955;28;20045;-81
2022/07/30 12:53:06;;;;;;;1.45;0.70;;;;;;;;;;5023415;28;20392;-81
2022/07/30 12:55:52;;;;;;;1.60;0.60;;;;;;;;;;5025239;28;20040;-81
2022/07/30 12:58:38;;;;;;;2.15;0.65;;;;;;;;;;5024787;28;20037;-81
2022/07/30 13:01:43;;;;;;;1.20;0.45;;;;;;;;;;5037663;28;20041;-81
2022/07/30 13:04:30;;;;;;;5.25;0.77;;;;;;;;;;5024479;28;20036;-81
2022/07/30 13:07:16;;;;;;;2.03;1.05;;;;;;;;;;5037718;28;20492;-81
2022/07/30 13:10:09;;;;;;;2.08;0.73;;;;;;;;;;5037478;28;20044;-81
2022/07/30 13:12:54;;;;;;;0.65;0.30;;;;;;;;;;5023098;28;20087;-80
2022/07/30 13:15:40;;;;;;;1.20;0.55;;;;;;;;;;5035434;28;20063;-81
2022/07/30 13:18:27;;;;;;;1.50;0.70;;;;;;;;;;5024536;28;20072;-81
2022/07/30 13:21:13;;;;;;;1.05;0.55;;;;;;;;;;5022228;28;20147;-81
2022/07/30 13:24:01;;;;;;;1.77;0.75;;;;;;;;;;5037476;28;20053;-81
2022/07/30 13:26:46;;;;;;;1.17;0.47;;;;;;;;;;5038060;28;20049;-81
2022/07/30 13:29:32;;;;;;;1.35;0.68;;;;;;;;;;5022094;28;20510;-81
2022/07/30 13:32:18;;;;;;;1.55;0.60;;;;;;;;;;5036951;28;20488;-81
2022/07/30 13:35:04;;;;;;;1.83;0.82;;;;;;;;;;5023089;28;20123;-81
2022/07/30 13:37:50;;;;;;;1.40;0.60;;;;;;;;;;5036007;28;20485;-81
2022/07/30 13:40:36;;;;;;;0.88;0.52;;;;;;;;;;5023597;28;20051;-81
2022/07/30 13:43:21;;;;;;;1.75;0.77;;;;;;;;;;5021706;28;20041;-81
2022/07/30 13:46:07;;;;;;;1.50;0.55;;;;;;;;;;5024254;28;20053;-81
2022/07/30 13:48:53;;;;;;;2.65;1.35;;;;;;;;;;5036554;28;20055;-81
2022/07/30 13:51:39;;;;;;;1.15;0.60;;;;;;;;;;5021989;28;20045;-81
2022/07/30 13:54:25;;;;;;;1.30;0.60;;;;;;;;;;5022893;28;20037;-81
2022/07/30 13:57:10;;;;;;;1.10;0.77;;;;;;;;;;5021784;28;20166;-81
2022/07/30 13:59:56;;;;;;;0.93;0.50;;;;;;;;;;5021834;28;20056;-81
2022/07/30 14:02:42;;;;;;;2.30;0.70;;;;;;;;;;5023541;28;20047;-81
2022/07/30 14:05:28;;;;;;;1.35;0.50;;;;;;;;;;5022406;28;20046;-81
2022/07/30 14:08:13;;;;;;;2.25;1.20;;;;;;;;;;5022987;28;20496;-81
2022/07/30 14:10:59;;;;;;;1.65;0.60;;;;;;;;;;5024018;28;20041;-81
2022/07/30 14:13:45;;;;;;;1.27;0.68;;;;;;;;;;5022259;28;20032;-81
2022/07/30 14:16:30;;;;;;;1.65;0.68;;;;;;;;;;5021693;28;20075;-81
2022/07/30 14:19:17;;;;;;;2.15;0.90;;;;;;;;;;5035842;28;20220;-81
2022/07/30 14:22:02;;;;;;;1.65;0.90;;;;;;;;;;5021764;28;20438;-81
2022/07/30 14:24:48;;;;;;;1.30;0.60;;;;;;;;;;5021665;28;20037;-81
2022/07/30 14:27:35;;;;;;;2.47;0.60;;;;;;;;;;5021462;28;20036;-81
2022/07/30 14:30:21;;;;;;;1.13;0.60;;;;;;;;;;5036915;28;20455;-81
2022/07/30 14:33:07;;;;;;;1.25;0.68;;;;;;;;;;5023795;28;20148;-81
2022/07/30 14:35:53;;;;;;;1.25;0.65;;;;;;;;;;5036386;28;20064;-81
2022/07/30 14:38:39;;;;;;;2.53;0.80;;;;;;;;;;5021511;28;20048;-81
2022/07/30 14:41:25;;;;;;;1.42;0.80;;;;;;;;;;5021310;28;20040;-81
2022/07/30 14:44:12;;;;;;;1.48;0.60;;;;;;;;;;5021189;28;20124;-81
2022/07/30 14:46:58;;;;;;;1.33;0.70;;;;;;;;;;5021312;28;20060;-81
2022/07/30 14:49:45;;;;;;;1.25;0.40;;;;;;;;;;5036042;28;20059;-81
2022/07/30 14:52:33;;;;;;;1.00;0.68;;;;;;;;;;5034789;28;20046;-81
2022/07/30 14:55:19;;;;;;;4.38;0.80;;;;;;;;;;5022277;28;20033;-81
2022/07/30 14:58:05;;;;;;;0.82;0.50;;;;;;;;;;5037187;28;20064;-81
2022/07/30 15:00:51;;;;;;;1.45;0.75;;;;;;;;;;5025049;28;20038;-81
2022/07/30 15:03:36;;;;;;;1.00;0.50;;;;;;;;;;5040005;28;20033;-81
2022/07/30 15:06:22;;;;;;;1.52;0.82;;;;;;;;;;5024996;28;20422;-81
2022/07/30 15:09:08;;;;;;;1.70;0.70;;;;;;;;;;5037774;28;20415;-81
2022/07/30 15:11:54;;;;;;;1.20;0.47;;;;;;;;;;5025932;28;20415;-81
2022/07/30 15:14:41;;;;;;;1.20;0.75;;;;;;;;;;5024964;28;20041;-81
2022/07/30 15:17:26;;;;;;;1.30;0.50;;;;;;;;;;5039329;28;20048;-81
2022/07/30 15:20:13;;;;;;;1.85;0.80;;;;;;;;;;5052401;28;20041;-81
2022/07/30 15:23:01;;;;;;;2.05;0.70;;;;;;;;;;5025333;28;20041;-81
2022/07/30 15:25:47;;;;;;;1.00;0.60;;;;;;;;;;5025200;28;20043;-81
2022/07/30 15:28:33;;;;;;;1.83;0.82;;;;;;;;;;5026431;28;20037;-81
2022/07/30 15:31:19;;;;;;;1.45;0.60;;;;;;;;;;5026706;28;20052;-81
2022/07/30 15:34:09;;;;;;;2.22;0.70;;;;;;;;;;5024511;28;20095;-81
2022/07/30 15:36:55;;;;;;;1.00;0.55;;;;;;;;;;5051361;28;20064;-81
2022/07/30 15:39:41;;;;;;;1.88;1.17;;;;;;;;;;5024108;28;20115;-81
2022/07/30 15:42:27;;;;;;;1.25;0.60;;;;;;;;;;5024341;28;20037;-81
2022/07/30 15:45:13;;;;;;;1.88;1.02;;;;;;;;;;5039317;28;20033;-81
2022/07/30 15:47:58;;;;;;;1.05;0.57;;;;;;;;;;5024010;28;20049;-81
2022/07/30 15:50:44;;;;;;;2.95;0.60;;;;;;;;;;5024145;28;20108;-82
2022/07/30 15:53:30;;;;;;;1.15;0.52;;;;;;;;;;5023677;28;20037;-81
2022/07/30 15:56:17;;;;;;;2.33;0.60;;;;;;;;;;5025925;28;20052;-81
2022/07/30 15:59:03;;;;;;;1.20;0.50;;;;;;;;;;5039033;28;20495;-81
2022/07/30 16:01:48;;;;;;;0.80;0.52;;;;;;;;;;5024131;28;20434;-81
2022/07/30 16:04:34;;;;;;;1.60;0.70;;;;;;;;;;5037769;28;20044;-82
2022/07/30 16:07:20;;;;;;;0.88;0.50;;;;;;;;;;5023353;28;20044;-82
2022/07/30 16:10:06;;;;;;;2.00;0.80;;;;;;;;;;5022514;28;20044;-81
2022/07/30 16:12:51;;;;;;;1.33;0.45;;;;;;;;;;5026492;28;20037;-82
2022/07/30 16:15:37;;;;;;;1.00;0.45;;;;;;;;;;5023673;28;20132;-81
2022/07/30 16:18:23;;;;;;;0.82;0.45;;;;;;;;;;5023490;28;20033;-82
2022/07/30 16:21:09;;;;;;;2.20;0.70;;;;;;;;;;5037623;28;20061;-82
2022/07/30 16:23:55;;;;;;;1.83;0.70;;;;;;;;;;5023387;28;20041;-82
2022/07/30 16:26:41;;;;;;;0.93;0.40;;;;;;;;;;5026168;28;20037;-81
2022/07/30 16:29:27;;;;;;;1.75;0.70;;;;;;;;;;5038253;28;20059;-81
2022/07/30 16:32:12;;;;;;;0.80;0.50;;;;;;;;;;5024503;28;20103;-81
2022/07/30 16:34:58;;;;;;;2.25;0.40;;;;;;;;;;5024312;28;20033;-81
2022/07/30 16:37:44;;;;;;;1.65;0.70;;;;;;;;;;5025376;28;20033;-81
2022/07/30 16:40:30;;;;;;;0.95;0.40;;;;;;;;;;5024485;28;20037;-80
2022/07/30 16:43:16;;;;;;;2.58;0.65;;;;;;;;;;5023720;28;20040;-80